createdAt,value
2024-05-09T00:00:50.559Z,16.83
2024-05-09T00:03:21.154Z,16.40
2024-05-09T00:05:51.075Z,17.90
2024-05-09T00:08:24.042Z,17.60
2024-05-09T00:10:53.986Z,16.87
2024-05-09T00:13:23.761Z,18.40
2024-05-09T00:15:53.579Z,17.50
2024-05-09T00:18:23.663Z,16.70
2024-05-09T00:20:53.578Z,17.20
2024-05-09T00:23:26.050Z,18.20
2024-05-09T00:25:55.977Z,17.13
2024-05-09T00:28:25.911Z,17.20
2024-05-09T00:30:56.032Z,17.87
2024-05-09T00:33:26.089Z,19.20
2024-05-09T00:35:56.064Z,17.90
2024-05-09T00:38:28.570Z,18.17
2024-05-09T00:40:58.379Z,19.67
2024-05-09T00:43:28.177Z,17.97
2024-05-09T00:45:58.458Z,18.93
2024-05-09T00:48:29.462Z,18.00
2024-05-09T00:51:00.562Z,18.23
2024-05-09T00:53:33.846Z,18.17
2024-05-09T00:56:04.372Z,18.17
2024-05-09T00:58:34.499Z,17.23
2024-05-09T01:01:05.559Z,17.27
2024-05-09T01:03:35.760Z,19.40
2024-05-09T01:06:05.679Z,18.23
2024-05-09T01:08:38.308Z,19.40
2024-05-09T01:11:08.349Z,19.27
2024-05-09T01:13:38.218Z,19.17
2024-05-09T01:16:08.842Z,19.07
2024-05-09T01:18:38.718Z,19.17
2024-05-09T01:21:10.126Z,20.13
2024-05-09T01:23:42.717Z,18.97
2024-05-09T01:26:12.714Z,19.53
2024-05-09T01:28:42.563Z,19.53
2024-05-09T01:31:15.806Z,19.30
2024-05-09T01:33:46.243Z,19.10
2024-05-09T01:36:16.224Z,20.13
2024-05-09T01:38:48.628Z,21.33
2024-05-09T01:41:18.498Z,20.10
2024-05-09T01:43:48.377Z,19.80
2024-05-09T01:46:19.447Z,20.37
2024-05-09T01:48:49.822Z,20.30
2024-05-09T01:51:19.743Z,19.80
2024-05-09T01:53:52.304Z,18.87
2024-05-09T01:56:22.135Z,21.07
2024-05-09T01:58:51.980Z,17.47
2024-05-09T02:01:21.828Z,20.33
2024-05-09T02:03:51.882Z,20.83
2024-05-09T02:06:21.868Z,20.60
2024-05-09T02:08:54.291Z,19.80
2024-05-09T02:11:24.238Z,19.70
2024-05-09T02:13:54.088Z,19.30
2024-05-09T02:16:23.915Z,21.30
2024-05-09T02:18:53.811Z,19.47
2024-05-09T02:21:23.739Z,21.07
2024-05-09T02:23:56.133Z,19.60
2024-05-09T02:26:26.014Z,20.97
2024-05-09T02:28:55.882Z,21.17
2024-05-09T02:31:25.622Z,20.33
2024-05-09T02:33:55.696Z,20.80
2024-05-09T02:36:22.977Z,21.70
2024-05-09T02:38:55.382Z,19.60
2024-05-09T02:41:22.614Z,20.97
2024-05-09T02:43:52.488Z,22.27
2024-05-09T02:46:19.687Z,22.10
2024-05-09T02:48:49.609Z,20.03
2024-05-09T02:51:16.905Z,22.60
2024-05-09T02:53:46.768Z,20.23
2024-05-09T02:56:16.605Z,21.23
2024-05-09T02:58:46.461Z,22.60
2024-05-09T03:01:16.776Z,21.40
2024-05-09T03:03:48.520Z,21.70
2024-05-09T03:06:15.790Z,22.07
2024-05-09T03:08:47.768Z,22.23
2024-05-09T03:11:25.274Z,22.23
2024-05-09T03:13:56.072Z,23.70
2024-05-09T03:16:23.258Z,21.80
2024-05-09T03:18:54.636Z,20.83
2024-05-09T03:21:22.053Z,22.30
2024-05-09T03:23:51.887Z,21.77
2024-05-09T03:26:19.442Z,22.27
2024-05-09T03:28:51.983Z,24.27
2024-05-09T03:31:19.222Z,23.63
2024-05-09T03:33:49.325Z,24.33
2024-05-09T03:36:16.901Z,23.73
2024-05-09T03:38:46.747Z,21.50
2024-05-09T03:41:16.579Z,23.17
2024-05-09T03:43:47.098Z,23.93
2024-05-09T03:46:17.038Z,23.97
2024-05-09T03:48:46.931Z,25.27
2024-05-09T03:51:14.591Z,25.57
2024-05-09T03:53:44.401Z,25.63
2024-05-09T03:56:11.644Z,26.07
2024-05-09T03:58:42.112Z,25.20
2024-05-09T04:01:09.293Z,24.37
2024-05-09T04:03:41.928Z,23.60
2024-05-09T04:06:09.210Z,23.17
2024-05-09T04:08:39.046Z,24.67
2024-05-09T04:11:07.256Z,23.63
2024-05-09T04:13:37.048Z,24.10
2024-05-09T04:16:04.587Z,25.27
2024-05-09T04:18:34.463Z,24.67
2024-05-09T04:21:05.280Z,23.10
2024-05-09T04:23:35.272Z,24.50
2024-05-09T04:26:04.375Z,26.33
2024-05-09T04:28:34.250Z,27.30
2024-05-09T04:31:01.469Z,24.50
2024-05-09T04:33:34.759Z,24.87
2024-05-09T04:36:05.329Z,24.43
2024-05-09T04:38:35.225Z,24.23
2024-05-09T04:41:02.511Z,26.37
2024-05-09T04:43:33.298Z,25.33
2024-05-09T04:46:00.480Z,26.77
2024-05-09T04:48:30.799Z,23.73
2024-05-09T04:50:58.077Z,26.23
2024-05-09T04:53:30.503Z,25.87
2024-05-09T04:55:57.808Z,25.93
2024-05-09T04:58:27.616Z,26.13
2024-05-09T05:00:54.839Z,26.33
2024-05-09T05:03:24.942Z,24.53
2024-05-09T05:05:52.365Z,25.57
2024-05-09T05:08:22.238Z,28.93
2024-05-09T05:10:52.178Z,25.80
2024-05-09T05:13:24.073Z,27.03
2024-05-09T05:15:55.212Z,25.40
2024-05-09T05:18:25.809Z,26.63
2024-05-09T05:20:53.194Z,26.70
2024-05-09T05:23:24.601Z,25.73
2024-05-09T05:25:56.826Z,24.13
2024-05-09T05:28:26.687Z,26.97
2024-05-09T05:30:53.990Z,26.87
2024-05-09T05:33:24.564Z,25.53
2024-05-09T05:35:51.837Z,26.00
2024-05-09T05:38:24.783Z,24.37
2024-05-09T05:40:57.128Z,22.33
2024-05-09T05:43:26.953Z,21.43
2024-05-09T05:45:54.114Z,23.63
2024-05-09T05:48:24.019Z,23.50
2024-05-09T05:50:51.507Z,23.60
2024-05-09T05:53:21.738Z,23.17
2024-05-09T05:55:48.911Z,21.57
2024-05-09T05:58:22.490Z,22.67
2024-05-09T06:00:50.557Z,22.27
2024-05-09T06:03:20.345Z,22.10
2024-05-09T06:05:47.569Z,23.87
2024-05-09T06:08:17.475Z,21.27
2024-05-09T06:10:45.089Z,21.80
2024-05-09T06:13:15.844Z,23.77
2024-05-09T06:15:45.765Z,22.63
2024-05-09T06:18:17.255Z,21.83
2024-05-09T06:20:44.697Z,20.70
2024-05-09T06:23:15.180Z,20.73
2024-05-09T06:25:43.826Z,21.53
2024-05-09T06:28:13.950Z,23.00
2024-05-09T06:30:42.676Z,22.90
2024-05-09T06:33:16.748Z,20.80
2024-05-09T06:35:45.043Z,21.90
2024-05-09T06:38:15.106Z,22.20
2024-05-09T06:40:43.941Z,23.07
2024-05-09T06:43:16.895Z,23.50
2024-05-09T06:45:47.739Z,22.30
2024-05-09T06:48:22.065Z,23.13
2024-05-09T06:50:50.402Z,24.57
2024-05-09T06:53:24.489Z,24.10
2024-05-09T06:55:51.915Z,22.93
2024-05-09T06:58:21.725Z,22.60
2024-05-09T07:00:49.019Z,25.07
2024-05-09T07:03:21.620Z,23.80
2024-05-09T07:05:49.758Z,22.57
2024-05-09T07:08:20.111Z,23.77
2024-05-09T07:10:47.514Z,22.73
2024-05-09T07:13:17.845Z,22.70
2024-05-09T07:15:45.083Z,24.47
2024-05-09T07:18:20.027Z,24.63
2024-05-09T07:20:50.953Z,25.27
2024-05-09T07:23:21.149Z,24.87
2024-05-09T07:25:48.618Z,25.13
2024-05-09T07:28:20.003Z,23.77
2024-05-09T07:30:47.554Z,24.37
2024-05-09T07:33:22.392Z,25.10
2024-05-09T07:35:53.646Z,23.13
2024-05-09T07:38:24.078Z,23.20
2024-05-09T07:40:51.366Z,25.03
2024-05-09T07:43:21.230Z,23.07
2024-05-09T07:45:53.346Z,26.17
2024-05-09T07:53:40.479Z,25.40
2024-05-09T07:56:12.537Z,22.50
2024-05-09T07:58:42.604Z,23.50
2024-05-09T08:01:09.924Z,24.50
2024-05-09T08:03:40.746Z,22.40
2024-05-09T08:06:10.700Z,23.70
2024-05-09T08:08:40.501Z,24.10
2024-05-09T08:11:07.813Z,23.57
2024-05-09T08:13:37.631Z,22.23
2024-05-09T08:16:05.642Z,22.80
2024-05-09T08:18:35.939Z,23.23
2024-05-09T08:21:03.261Z,23.17
2024-05-09T08:23:36.243Z,22.17
2024-05-09T08:26:03.527Z,22.20
2024-05-09T08:28:33.425Z,20.77
2024-05-09T08:31:03.129Z,22.27
2024-05-09T08:33:35.403Z,21.03
2024-05-09T08:36:03.011Z,20.60
2024-05-09T08:38:35.620Z,21.50
2024-05-09T08:41:04.136Z,21.23
2024-05-09T08:43:33.944Z,21.57
2024-05-09T08:46:04.261Z,21.97
2024-05-09T08:48:39.302Z,22.30
2024-05-09T08:51:06.958Z,21.70
2024-05-09T08:53:39.393Z,21.53
2024-05-09T08:56:08.922Z,22.57
2024-05-09T08:58:40.062Z,21.53
2024-05-09T09:01:07.962Z,21.07
2024-05-09T09:03:40.185Z,20.63
2024-05-09T09:06:11.601Z,19.53
2024-05-09T09:08:44.166Z,18.07
2024-05-09T09:11:11.421Z,18.87
2024-05-09T09:13:41.305Z,17.60
2024-05-09T09:16:08.858Z,17.40
2024-05-09T09:18:39.031Z,17.10
2024-05-09T09:21:10.588Z,17.00
2024-05-09T09:23:43.256Z,18.60
2024-05-09T09:26:15.917Z,16.47
2024-05-09T09:28:46.160Z,15.30
2024-05-09T09:31:16.694Z,16.97
2024-05-09T09:33:46.735Z,15.70
2024-05-09T09:36:14.411Z,16.20
2024-05-09T09:38:48.810Z,15.43
2024-05-09T09:41:17.874Z,14.80
2024-05-09T09:43:47.969Z,14.37
2024-05-09T09:46:16.173Z,14.57
2024-05-09T09:48:47.148Z,14.37
2024-05-09T09:51:15.745Z,14.63
2024-05-09T09:53:50.115Z,15.57
2024-05-09T09:56:18.562Z,15.10
2024-05-09T09:58:49.326Z,16.10
2024-05-09T10:01:16.670Z,13.57
2024-05-09T10:03:47.702Z,13.73
2024-05-09T10:06:16.217Z,15.30
2024-05-09T10:08:49.687Z,15.47
2024-05-09T10:11:20.280Z,14.20
2024-05-09T10:13:50.335Z,14.60
2024-05-09T10:16:21.375Z,16.63
2024-05-09T10:18:51.567Z,16.60
2024-05-09T10:21:20.186Z,15.03
2024-05-09T10:24:03.348Z,15.10
2024-05-09T10:26:32.228Z,14.23
2024-05-09T10:29:03.308Z,13.27
2024-05-09T10:31:30.536Z,13.83
2024-05-09T10:34:02.999Z,14.13
2024-05-09T10:36:30.572Z,12.93
2024-05-09T10:39:03.039Z,13.03
2024-05-09T10:41:30.178Z,12.97
2024-05-09T10:43:59.991Z,12.27
2024-05-09T10:46:27.266Z,12.60
2024-05-09T10:48:57.214Z,15.57
2024-05-09T10:51:25.041Z,15.53
2024-05-09T10:53:56.686Z,15.20
2024-05-09T10:56:26.775Z,13.73
2024-05-09T10:58:57.325Z,13.40
2024-05-09T11:01:24.677Z,13.27
2024-05-09T11:03:55.210Z,13.20
2024-05-09T11:06:23.337Z,13.27
2024-05-09T11:08:54.059Z,15.97
2024-05-09T11:11:21.373Z,13.50
2024-05-09T11:13:53.763Z,12.27
2024-05-09T11:16:21.791Z,13.53
2024-05-09T11:18:59.536Z,13.07
2024-05-09T11:21:27.075Z,12.90
2024-05-09T11:23:57.223Z,12.20
2024-05-09T11:26:25.434Z,13.13
2024-05-09T11:28:58.056Z,14.57
2024-05-09T11:31:25.621Z,12.63
2024-05-09T11:33:57.272Z,12.30
2024-05-09T11:36:24.620Z,12.97
2024-05-09T11:38:54.496Z,13.50
2024-05-09T11:41:21.757Z,14.00
2024-05-09T11:43:51.535Z,14.47
2024-05-09T11:46:21.619Z,14.97
2024-05-09T11:48:51.685Z,14.97
2024-05-09T11:51:19.163Z,13.37
2024-05-09T11:53:48.963Z,14.77
2024-05-09T11:56:17.397Z,14.60
2024-05-09T11:58:47.206Z,14.90
2024-05-09T12:01:14.514Z,18.37
2024-05-09T12:03:48.658Z,17.23
2024-05-09T12:06:16.026Z,18.03
2024-05-09T12:08:46.066Z,17.60
2024-05-09T12:11:13.887Z,15.40
2024-05-09T12:13:43.771Z,16.93
2024-05-09T12:16:11.081Z,16.80
2024-05-09T12:18:40.981Z,16.60
2024-05-09T12:21:10.848Z,15.97
2024-05-09T12:23:40.624Z,14.30
2024-05-09T12:26:08.002Z,16.73
2024-05-09T12:28:37.841Z,16.97
2024-05-09T12:31:05.311Z,15.40
2024-05-09T12:33:35.293Z,15.73
2024-05-09T12:36:02.641Z,17.67
2024-05-09T12:38:35.159Z,16.43
2024-05-09T12:41:02.391Z,18.00
2024-05-09T12:43:32.287Z,15.40
2024-05-09T12:45:59.541Z,15.23
2024-05-09T12:48:29.460Z,18.23
2024-05-09T12:50:57.643Z,15.80
2024-05-09T12:53:27.559Z,15.60
2024-05-09T12:56:01.839Z,15.27
2024-05-09T12:58:33.769Z,17.10
2024-05-09T13:01:01.059Z,14.50
2024-05-09T13:03:31.204Z,15.80
2024-05-09T13:05:58.877Z,16.13
2024-05-09T13:08:28.778Z,18.10
2024-05-09T13:10:58.893Z,16.67
2024-05-09T13:13:29.334Z,15.43
2024-05-09T13:15:56.504Z,12.43
2024-05-09T13:18:26.500Z,13.90
2024-05-09T13:20:53.746Z,12.97
2024-05-09T13:23:23.544Z,12.43
2024-05-09T13:25:50.791Z,11.10
2024-05-09T13:28:23.363Z,12.00
2024-05-09T13:30:50.700Z,11.80
2024-05-09T13:33:20.809Z,12.33
2024-05-09T13:35:50.565Z,12.07
2024-05-09T13:38:21.844Z,14.83
2024-05-09T13:40:50.410Z,15.57
2024-05-09T13:43:23.991Z,13.30
2024-05-09T13:45:51.971Z,14.00
2024-05-09T13:48:21.913Z,13.10
2024-05-09T13:50:49.172Z,14.13
2024-05-09T13:53:19.392Z,14.80
2024-05-09T13:55:46.726Z,15.20
2024-05-09T13:58:16.735Z,14.27
2024-05-09T14:00:48.965Z,13.40
2024-05-09T14:03:21.070Z,13.70
2024-05-09T14:05:50.224Z,15.63
2024-05-09T14:08:22.333Z,15.77
2024-05-09T14:10:50.466Z,18.00
2024-05-09T14:13:20.627Z,15.13
2024-05-09T14:15:50.880Z,15.57
2024-05-09T14:18:21.188Z,14.17
2024-05-09T14:20:48.461Z,14.43
2024-05-09T14:23:20.616Z,12.77
2024-05-09T14:25:51.826Z,14.33
2024-05-09T14:28:22.745Z,14.30
2024-05-09T14:30:53.267Z,13.50
2024-05-09T14:33:26.680Z,11.50
2024-05-09T14:35:54.423Z,12.60
2024-05-09T14:38:24.321Z,12.90
2024-05-09T14:40:51.632Z,12.40
2024-05-09T14:43:21.771Z,11.77
2024-05-09T14:45:49.012Z,12.50
2024-05-09T14:48:22.326Z,12.20
2024-05-09T14:50:49.586Z,11.50
2024-05-09T14:53:19.403Z,11.37
2024-05-09T14:55:46.718Z,11.37
2024-05-09T14:58:16.837Z,11.70
2024-05-09T15:00:50.129Z,11.57
2024-05-09T15:03:23.864Z,12.00
2024-05-09T15:05:51.715Z,12.10
2024-05-09T15:08:22.078Z,11.30
2024-05-09T15:10:50.435Z,11.30
2024-05-09T15:13:20.992Z,10.17
2024-05-09T15:15:48.790Z,10.43
2024-05-09T15:18:19.487Z,10.87
2024-05-09T15:20:49.605Z,9.57
2024-05-09T15:23:19.830Z,11.50
2024-05-09T15:25:47.160Z,10.30
2024-05-09T15:28:17.168Z,10.53
2024-05-09T15:30:46.539Z,9.70
2024-05-09T15:33:17.315Z,9.60
2024-05-09T15:35:46.673Z,9.90
2024-05-09T15:38:19.885Z,9.17
2024-05-09T15:40:47.284Z,9.37
2024-05-09T15:43:17.415Z,9.20
2024-05-09T15:45:44.952Z,8.50
2024-05-09T15:48:15.015Z,8.33
2024-05-09T15:50:43.055Z,7.23
2024-05-09T15:53:13.893Z,7.57
2024-05-09T15:55:43.887Z,7.40
2024-05-09T15:58:14.231Z,8.23
2024-05-09T16:00:44.792Z,7.73
2024-05-09T16:03:16.282Z,7.30
2024-05-09T16:05:44.825Z,8.57
2024-05-09T16:08:15.487Z,8.40
2024-05-09T16:10:47.443Z,8.10
2024-05-09T16:13:19.619Z,7.30
2024-05-09T16:15:47.242Z,7.27
2024-05-09T16:18:17.267Z,7.53
2024-05-09T16:20:46.443Z,6.33
2024-05-09T16:23:18.297Z,6.70
2024-05-09T16:25:48.710Z,6.80
2024-05-09T16:28:19.319Z,5.80
2024-05-09T16:30:46.975Z,6.40
2024-05-09T16:33:19.455Z,5.70
2024-05-09T16:35:46.978Z,5.37
2024-05-09T16:38:16.738Z,5.67
2024-05-09T16:40:44.151Z,5.13
2024-05-09T16:43:16.927Z,4.50
2024-05-09T16:45:44.735Z,5.20
2024-05-09T16:48:16.839Z,5.07
2024-05-09T16:50:44.121Z,5.40
2024-05-09T16:53:14.133Z,7.20
2024-05-09T16:55:41.487Z,6.37
2024-05-09T16:58:12.360Z,5.17
2024-05-09T17:00:43.901Z,5.07
2024-05-09T17:03:16.636Z,5.67
2024-05-09T17:05:46.419Z,5.60
2024-05-09T17:08:19.777Z,4.97
2024-05-09T17:10:48.664Z,5.87
2024-05-09T17:13:19.790Z,5.70
2024-05-09T17:15:52.654Z,5.00
2024-05-09T17:18:23.034Z,4.97
2024-05-09T17:20:52.385Z,5.40
2024-05-09T17:23:22.198Z,5.60
2024-05-09T17:25:49.421Z,4.60
2024-05-09T17:28:19.601Z,5.17
2024-05-09T17:30:49.659Z,5.00
2024-05-09T17:33:19.747Z,4.87
2024-05-09T17:35:50.365Z,5.80
2024-05-09T17:38:22.858Z,6.17
2024-05-09T17:40:50.541Z,5.60
2024-05-09T17:43:20.633Z,6.70
2024-05-09T17:45:50.553Z,5.63
2024-05-09T17:48:20.605Z,6.17
2024-05-09T17:50:48.003Z,7.63
2024-05-09T17:53:17.742Z,9.00
2024-05-09T17:55:45.009Z,9.30
2024-05-09T17:58:15.796Z,9.20
2024-05-09T18:00:43.172Z,9.03
2024-05-09T18:03:15.617Z,7.00
2024-05-09T18:05:44.268Z,7.43
2024-05-09T18:08:14.830Z,6.90
2024-05-09T18:10:42.507Z,6.00
2024-05-09T18:13:13.154Z,6.17
2024-05-09T18:15:41.178Z,6.43
2024-05-09T18:18:11.717Z,8.20
2024-05-09T18:20:45.263Z,9.93
2024-05-09T18:23:17.928Z,10.00
2024-05-09T18:25:46.740Z,12.10
2024-05-09T18:28:17.680Z,10.30
2024-05-09T18:30:45.230Z,11.37
2024-05-09T18:33:15.695Z,10.23
2024-05-09T18:35:45.874Z,11.63
2024-05-09T18:38:15.940Z,12.03
2024-05-09T18:40:45.929Z,11.80
2024-05-09T18:43:19.019Z,12.17
2024-05-09T18:45:49.293Z,14.80
2024-05-09T18:48:19.332Z,14.93
2024-05-09T18:50:49.399Z,15.97
2024-05-09T18:53:19.295Z,14.73
2024-05-09T18:55:46.476Z,15.17
2024-05-09T18:58:17.189Z,14.13
2024-05-09T19:00:47.177Z,14.90
2024-05-09T19:03:19.707Z,15.60
2024-05-09T19:05:50.046Z,15.50
2024-05-09T19:08:19.922Z,15.43
2024-05-09T19:10:47.215Z,16.80
2024-05-09T19:13:17.198Z,16.73
2024-05-09T19:15:44.814Z,16.33
2024-05-09T19:18:15.595Z,14.83
2024-05-09T19:20:43.481Z,16.17
2024-05-09T19:23:16.034Z,16.23
2024-05-09T19:25:43.222Z,15.17
2024-05-09T19:28:13.094Z,15.63
2024-05-09T19:30:42.372Z,15.70
2024-05-09T19:33:14.611Z,15.93
2024-05-09T19:35:42.723Z,15.40
2024-05-09T19:38:15.544Z,15.53
2024-05-09T19:40:42.930Z,14.80
2024-05-09T19:43:13.385Z,15.90
2024-05-09T19:45:40.705Z,15.60
2024-05-09T19:48:11.228Z,15.23
2024-05-09T19:50:43.132Z,15.03
2024-05-09T19:53:17.524Z,14.80
2024-05-09T19:55:44.729Z,13.37
2024-05-09T19:58:14.683Z,13.90
2024-05-09T20:00:43.651Z,14.13
2024-05-09T20:03:15.738Z,14.17
2024-05-09T20:05:45.917Z,14.23
2024-05-09T20:08:19.743Z,14.70
2024-05-09T20:10:47.094Z,14.07
2024-05-09T20:13:17.164Z,14.70
2024-05-09T20:15:44.542Z,13.80
2024-05-09T20:18:14.692Z,14.17
2024-05-09T20:20:44.067Z,14.23
2024-05-09T20:23:18.047Z,13.30
2024-05-09T20:25:45.325Z,12.50
2024-05-09T20:28:15.207Z,14.70
2024-05-09T20:30:42.407Z,13.07
2024-05-09T20:33:14.108Z,13.00
2024-05-09T20:35:41.455Z,12.93
2024-05-09T20:38:11.196Z,14.80
2024-05-09T20:40:41.035Z,13.57
2024-05-09T20:43:11.808Z,11.40
2024-05-09T20:45:40.102Z,12.03
2024-05-09T20:48:11.696Z,11.93
2024-05-09T20:50:41.617Z,11.47
2024-05-09T20:53:14.599Z,11.77
2024-05-09T20:55:45.544Z,11.43
2024-05-09T20:58:15.708Z,12.10
2024-05-09T21:00:45.596Z,12.30
2024-05-09T21:03:17.770Z,13.00
2024-05-09T21:05:45.916Z,12.83
2024-05-09T21:08:16.166Z,12.30
2024-05-09T21:10:46.082Z,12.90
2024-05-09T21:13:16.056Z,13.03
2024-05-09T21:15:43.434Z,13.63
2024-05-09T21:18:13.691Z,12.90
2024-05-09T21:20:40.956Z,13.10
2024-05-09T21:23:11.062Z,14.17
2024-05-09T21:25:38.346Z,14.10
2024-05-09T21:28:10.984Z,13.53
2024-05-09T21:30:42.052Z,14.10
2024-05-09T21:33:14.781Z,13.97
2024-05-09T21:35:42.993Z,14.27
2024-05-09T21:38:13.677Z,14.90
2024-05-09T21:40:41.208Z,14.77
2024-05-09T21:43:14.288Z,11.77
2024-05-09T21:45:41.889Z,14.07
2024-05-09T21:48:11.850Z,13.83
2024-05-09T21:50:41.558Z,14.50
2024-05-09T21:53:13.205Z,14.17
2024-05-09T21:55:41.158Z,15.60
2024-05-09T21:58:14.940Z,15.57
2024-05-09T22:00:45.670Z,14.77
2024-05-09T22:03:16.313Z,14.03
2024-05-09T22:05:45.019Z,13.57
2024-05-09T22:08:15.297Z,13.93
2024-05-09T22:10:42.726Z,13.77
2024-05-09T22:13:16.833Z,13.53
2024-05-09T22:15:44.294Z,14.80
2024-05-09T22:18:14.273Z,14.10
2024-05-09T22:20:45.225Z,15.00
2024-05-09T22:23:16.378Z,15.10
2024-05-09T22:25:43.684Z,13.40
2024-05-09T22:28:17.403Z,16.00
2024-05-09T22:30:46.236Z,15.00
2024-05-09T22:33:17.578Z,14.80
2024-05-09T22:35:45.229Z,15.60
2024-05-09T22:38:15.187Z,15.80
2024-05-09T22:40:47.903Z,16.00
2024-05-09T22:43:24.732Z,15.33
2024-05-09T22:45:55.709Z,15.10
2024-05-09T22:48:24.279Z,15.63
2024-05-09T22:50:54.932Z,15.97
2024-05-09T22:53:22.879Z,16.60
2024-05-09T22:55:52.703Z,15.50
2024-05-09T22:58:23.316Z,17.47
2024-05-09T23:00:53.594Z,17.20
2024-05-09T23:03:22.637Z,15.47
2024-05-09T23:05:52.839Z,15.83
2024-05-09T23:08:20.128Z,16.50
2024-05-09T23:10:49.991Z,16.77
2024-05-09T23:13:17.372Z,16.10
2024-05-09T23:15:49.793Z,16.70
2024-05-09T23:18:17.087Z,16.03
2024-05-09T23:20:46.933Z,16.77
2024-05-09T23:23:14.171Z,15.20
2024-05-09T23:25:46.001Z,16.70
2024-05-09T23:28:13.410Z,15.87
2024-05-09T23:30:43.418Z,15.80
2024-05-09T23:33:14.249Z,16.37
2024-05-09T23:35:45.245Z,16.27
2024-05-09T23:38:12.585Z,16.83
2024-05-09T23:40:43.302Z,18.00
2024-05-09T23:43:12.293Z,19.07
2024-05-09T23:45:43.132Z,18.30
2024-05-09T23:48:13.278Z,17.70
2024-05-09T23:50:43.410Z,18.70
2024-05-09T23:53:11.225Z,17.97
2024-05-09T23:55:41.725Z,17.40
2024-05-09T23:58:09.492Z,18.70
